sensor_id;sensor_type;location;lat;lon;timestamp;temperature;humidity
3705;DHT22;1868;48.918;9.438;2023-05-07T00:01:25;13.90;97.40
3705;DHT22;1868;48.918;9.438;2023-05-07T00:03:54;13.90;97.40
3705;DHT22;1868;48.918;9.438;2023-05-07T00:06:23;13.80;97.40
3705;DHT22;1868;48.918;9.438;2023-05-07T00:08:53;13.80;97.40
3705;DHT22;1868;48.918;9.438;2023-05-07T00:11:23;13.80;97.40
3705;DHT22;1868;48.918;9.438;2023-05-07T00:13:54;13.80;97.40
3705;DHT22;1868;48.918;9.438;2023-05-07T00:16:25;13.80;97.40
3705;DHT22;1868;48.918;9.438;2023-05-07T00:18:54;13.70;97.40
3705;DHT22;1868;48.918;9.438;2023-05-07T00:21:24;13.70;97.40
3705;DHT22;1868;48.918;9.438;2023-05-07T00:23:55;13.70;97.40
3705;DHT22;1868;48.918;9.438;2023-05-07T00:26:26;13.60;97.40
3705;DHT22;1868;48.918;9.438;2023-05-07T00:28:56;13.60;97.40
3705;DHT22;1868;48.918;9.438;2023-05-07T00:31:29;13.60;97.40
3705;DHT22;1868;48.918;9.438;2023-05-07T00:33:59;13.60;97.40
3705;DHT22;1868;48.918;9.438;2023-05-07T00:36:29;13.50;97.40
3705;DHT22;1868;48.918;9.438;2023-05-07T00:38:59;13.50;97.40
3705;DHT22;1868;48.918;9.438;2023-05-07T00:41:30;13.50;97.40
3705;DHT22;1868;48.918;9.438;2023-05-07T00:44:00;13.50;97.40
3705;DHT22;1868;48.918;9.438;2023-05-07T00:46:31;13.50;97.40
3705;DHT22;1868;48.918;9.438;2023-05-07T00:49:01;13.40;97.40
3705;DHT22;1868;48.918;9.438;2023-05-07T00:51:30;13.40;97.40
3705;DHT22;1868;48.918;9.438;2023-05-07T00:54:00;13.40;97.40
3705;DHT22;1868;48.918;9.438;2023-05-07T00:56:33;13.30;97.40
3705;DHT22;1868;48.918;9.438;2023-05-07T00:59:02;13.30;97.40
3705;DHT22;1868;48.918;9.438;2023-05-07T01:01:34;13.30;97.40
3705;DHT22;1868;48.918;9.438;2023-05-07T01:04:03;13.20;97.40
3705;DHT22;1868;48.918;9.438;2023-05-07T01:06:34;13.20;97.40
3705;DHT22;1868;48.918;9.438;2023-05-07T01:09:04;13.10;97.40
3705;DHT22;1868;48.918;9.438;2023-05-07T01:11:36;13.10;97.40
3705;DHT22;1868;48.918;9.438;2023-05-07T01:14:05;13.10;97.40
3705;DHT22;1868;48.918;9.438;2023-05-07T01:16:37;13.10;97.40
3705;DHT22;1868;48.918;9.438;2023-05-07T01:19:12;13.00;97.40
3705;DHT22;1868;48.918;9.438;2023-05-07T01:21:46;13.00;97.40
3705;DHT22;1868;48.918;9.438;2023-05-07T01:24:20;13.00;97.40
3705;DHT22;1868;48.918;9.438;2023-05-07T01:26:50;13.00;97.40
3705;DHT22;1868;48.918;9.438;2023-05-07T01:29:19;12.90;97.40
3705;DHT22;1868;48.918;9.438;2023-05-07T01:31:52;12.90;97.40
3705;DHT22;1868;48.918;9.438;2023-05-07T01:34:21;12.90;97.40
3705;DHT22;1868;48.918;9.438;2023-05-07T01:36:52;12.90;97.40
3705;DHT22;1868;48.918;9.438;2023-05-07T01:39:27;12.90;97.40
3705;DHT22;1868;48.918;9.438;2023-05-07T01:42:01;12.90;97.40
3705;DHT22;1868;48.918;9.438;2023-05-07T01:44:31;12.80;97.40
3705;DHT22;1868;48.918;9.438;2023-05-07T01:47:04;12.80;97.40
3705;DHT22;1868;48.918;9.438;2023-05-07T01:49:35;12.80;97.40
3705;DHT22;1868;48.918;9.438;2023-05-07T01:52:04;12.70;97.40
3705;DHT22;1868;48.918;9.438;2023-05-07T01:54:35;12.70;97.40
3705;DHT22;1868;48.918;9.438;2023-05-07T01:57:04;12.70;97.40
3705;DHT22;1868;48.918;9.438;2023-05-07T01:59:39;12.70;97.40
3705;DHT22;1868;48.918;9.438;2023-05-07T02:02:08;12.60;97.40
3705;DHT22;1868;48.918;9.438;2023-05-07T02:04:40;12.60;97.40
3705;DHT22;1868;48.918;9.438;2023-05-07T02:07:09;12.60;97.40
3705;DHT22;1868;48.918;9.438;2023-05-07T02:09:41;12.50;97.40
3705;DHT22;1868;48.918;9.438;2023-05-07T02:12:12;12.50;97.40
3705;DHT22;1868;48.918;9.438;2023-05-07T02:14:42;12.50;97.40
3705;DHT22;1868;48.918;9.438;2023-05-07T02:17:13;12.50;97.40
3705;DHT22;1868;48.918;9.438;2023-05-07T02:19:42;12.40;97.40
3705;DHT22;1868;48.918;9.438;2023-05-07T02:22:12;12.40;97.40
3705;DHT22;1868;48.918;9.438;2023-05-07T02:24:46;12.40;97.40
3705;DHT22;1868;48.918;9.438;2023-05-07T02:27:16;12.30;97.40
3705;DHT22;1868;48.918;9.438;2023-05-07T02:29:44;12.30;97.40
3705;DHT22;1868;48.918;9.438;2023-05-07T02:32:14;12.20;97.40
3705;DHT22;1868;48.918;9.438;2023-05-07T02:34:44;12.20;97.40
3705;DHT22;1868;48.918;9.438;2023-05-07T02:37:13;12.20;97.40
3705;DHT22;1868;48.918;9.438;2023-05-07T02:39:47;12.10;97.40
3705;DHT22;1868;48.918;9.438;2023-05-07T02:42:17;12.10;97.40
3705;DHT22;1868;48.918;9.438;2023-05-07T02:44:46;12.10;97.40
3705;DHT22;1868;48.918;9.438;2023-05-07T02:47:18;12.10;97.40
3705;DHT22;1868;48.918;9.438;2023-05-07T02:49:47;12.00;97.40
3705;DHT22;1868;48.918;9.438;2023-05-07T02:52:16;12.00;97.40
3705;DHT22;1868;48.918;9.438;2023-05-07T02:54:48;12.00;97.40
3705;DHT22;1868;48.918;9.438;2023-05-07T02:57:21;11.90;97.40
3705;DHT22;1868;48.918;9.438;2023-05-07T02:59:50;11.80;97.40
3705;DHT22;1868;48.918;9.438;2023-05-07T03:02:20;11.80;97.40
3705;DHT22;1868;48.918;9.438;2023-05-07T03:04:49;11.80;97.40
3705;DHT22;1868;48.918;9.438;2023-05-07T03:07:20;11.70;97.40
3705;DHT22;1868;48.918;9.438;2023-05-07T03:09:52;11.70;97.40
3705;DHT22;1868;48.918;9.438;2023-05-07T03:12:23;11.70;97.40
3705;DHT22;1868;48.918;9.438;2023-05-07T03:14:52;11.70;97.40
3705;DHT22;1868;48.918;9.438;2023-05-07T03:17:23;11.70;97.40
3705;DHT22;1868;48.918;9.438;2023-05-07T03:19:51;11.60;97.40
3705;DHT22;1868;48.918;9.438;2023-05-07T03:22:21;11.60;97.40
3705;DHT22;1868;48.918;9.438;2023-05-07T03:24:51;11.50;97.40
3705;DHT22;1868;48.918;9.438;2023-05-07T03:27:20;11.50;97.40
3705;DHT22;1868;48.918;9.438;2023-05-07T03:29:51;11.50;97.40
3705;DHT22;1868;48.918;9.438;2023-05-07T03:32:21;11.50;97.40
3705;DHT22;1868;48.918;9.438;2023-05-07T03:34:50;11.40;97.40
3705;DHT22;1868;48.918;9.438;2023-05-07T03:37:20;11.40;97.40
3705;DHT22;1868;48.918;9.438;2023-05-07T03:39:52;11.40;97.40
3705;DHT22;1868;48.918;9.438;2023-05-07T03:42:21;11.30;97.40
3705;DHT22;1868;48.918;9.438;2023-05-07T03:44:52;11.30;97.40
3705;DHT22;1868;48.918;9.438;2023-05-07T03:47:20;11.30;97.40
3705;DHT22;1868;48.918;9.438;2023-05-07T03:49:52;11.20;97.40
3705;DHT22;1868;48.918;9.438;2023-05-07T03:52:23;11.20;97.40
3705;DHT22;1868;48.918;9.438;2023-05-07T03:55:00;11.20;97.40
3705;DHT22;1868;48.918;9.438;2023-05-07T03:57:33;11.20;97.40
3705;DHT22;1868;48.918;9.438;2023-05-07T04:00:04;11.20;97.40
3705;DHT22;1868;48.918;9.438;2023-05-07T04:02:46;11.20;97.40
3705;DHT22;1868;48.918;9.438;2023-05-07T04:05:25;11.10;97.40
3705;DHT22;1868;48.918;9.438;2023-05-07T04:07:59;11.10;97.40
3705;DHT22;1868;48.918;9.438;2023-05-07T04:10:39;11.10;97.40
3705;DHT22;1868;48.918;9.438;2023-05-07T04:13:10;11.10;97.40
3705;DHT22;1868;48.918;9.438;2023-05-07T04:15:40;11.10;97.40
3705;DHT22;1868;48.918;9.438;2023-05-07T04:18:13;11.20;97.40
3705;DHT22;1868;48.918;9.438;2023-05-07T04:20:44;11.20;97.40
3705;DHT22;1868;48.918;9.438;2023-05-07T04:23:14;11.20;97.40
3705;DHT22;1868;48.918;9.438;2023-05-07T04:25:46;11.20;97.40
3705;DHT22;1868;48.918;9.438;2023-05-07T04:28:21;11.20;97.40
3705;DHT22;1868;48.918;9.438;2023-05-07T04:30:51;11.30;97.40
3705;DHT22;1868;48.918;9.438;2023-05-07T04:33:21;11.30;97.40
3705;DHT22;1868;48.918;9.438;2023-05-07T04:35:51;11.40;97.40
3705;DHT22;1868;48.918;9.438;2023-05-07T04:38:20;11.50;97.40
3705;DHT22;1868;48.918;9.438;2023-05-07T04:40:54;11.60;97.40
3705;DHT22;1868;48.918;9.438;2023-05-07T04:43:26;11.60;97.40
3705;DHT22;1868;48.918;9.438;2023-05-07T04:45:56;11.70;97.40
3705;DHT22;1868;48.918;9.438;2023-05-07T04:48:29;11.80;97.40
3705;DHT22;1868;48.918;9.438;2023-05-07T04:50:59;11.90;97.40
3705;DHT22;1868;48.918;9.438;2023-05-07T04:53:28;12.00;97.40
3705;DHT22;1868;48.918;9.438;2023-05-07T04:55:59;12.10;97.40
3705;DHT22;1868;48.918;9.438;2023-05-07T04:58:38;12.20;97.40
3705;DHT22;1868;48.918;9.438;2023-05-07T05:01:09;12.40;97.40
3705;DHT22;1868;48.918;9.438;2023-05-07T05:03:41;12.50;97.40
3705;DHT22;1868;48.918;9.438;2023-05-07T05:06:12;12.70;97.40
3705;DHT22;1868;48.918;9.438;2023-05-07T05:08:44;12.80;97.40
3705;DHT22;1868;48.918;9.438;2023-05-07T05:11:15;13.00;97.40
3705;DHT22;1868;48.918;9.438;2023-05-07T05:13:43;13.10;97.40
3705;DHT22;1868;48.918;9.438;2023-05-07T05:16:21;13.20;97.40
3705;DHT22;1868;48.918;9.438;2023-05-07T05:18:52;13.30;97.40
3705;DHT22;1868;48.918;9.438;2023-05-07T05:21:21;13.40;97.40
3705;DHT22;1868;48.918;9.438;2023-05-07T05:23:58;13.40;97.40
3705;DHT22;1868;48.918;9.438;2023-05-07T05:26:29;13.50;97.40
3705;DHT22;1868;48.918;9.438;2023-05-07T05:28:59;13.50;97.40
3705;DHT22;1868;48.918;9.438;2023-05-07T05:31:29;13.50;97.40
3705;DHT22;1868;48.918;9.438;2023-05-07T05:34:04;13.50;97.40
3705;DHT22;1868;48.918;9.438;2023-05-07T05:36:36;13.50;97.40
3705;DHT22;1868;48.918;9.438;2023-05-07T05:39:08;13.50;97.40
3705;DHT22;1868;48.918;9.438;2023-05-07T05:41:38;13.50;97.40
3705;DHT22;1868;48.918;9.438;2023-05-07T05:44:08;13.60;97.40
3705;DHT22;1868;48.918;9.438;2023-05-07T05:46:40;13.80;97.40
3705;DHT22;1868;48.918;9.438;2023-05-07T05:49:09;13.90;97.40
3705;DHT22;1868;48.918;9.438;2023-05-07T05:51:43;14.10;97.40
3705;DHT22;1868;48.918;9.438;2023-05-07T05:54:12;14.20;97.40
3705;DHT22;1868;48.918;9.438;2023-05-07T05:56:43;14.30;97.40
3705;DHT22;1868;48.918;9.438;2023-05-07T05:59:13;14.50;97.40
3705;DHT22;1868;48.918;9.438;2023-05-07T06:01:42;14.60;97.40
3705;DHT22;1868;48.918;9.438;2023-05-07T06:04:12;14.70;97.40
3705;DHT22;1868;48.918;9.438;2023-05-07T06:06:41;14.80;97.40
3705;DHT22;1868;48.918;9.438;2023-05-07T06:09:11;14.90;97.40
3705;DHT22;1868;48.918;9.438;2023-05-07T06:11:44;15.10;97.40
3705;DHT22;1868;48.918;9.438;2023-05-07T06:14:13;15.30;97.40
3705;DHT22;1868;48.918;9.438;2023-05-07T06:16:44;15.50;97.40
3705;DHT22;1868;48.918;9.438;2023-05-07T06:19:14;15.80;97.40
3705;DHT22;1868;48.918;9.438;2023-05-07T06:21:45;16.00;97.40
3705;DHT22;1868;48.918;9.438;2023-05-07T06:24:14;16.10;97.40
3705;DHT22;1868;48.918;9.438;2023-05-07T06:26:45;16.20;97.40
3705;DHT22;1868;48.918;9.438;2023-05-07T06:29:16;16.30;97.40
3705;DHT22;1868;48.918;9.438;2023-05-07T06:31:48;16.50;97.40
3705;DHT22;1868;48.918;9.438;2023-05-07T06:34:18;16.70;97.40
3705;DHT22;1868;48.918;9.438;2023-05-07T06:36:47;16.70;97.40
3705;DHT22;1868;48.918;9.438;2023-05-07T06:39:27;16.80;97.40
3705;DHT22;1868;48.918;9.438;2023-05-07T06:41:58;16.90;97.40
3705;DHT22;1868;48.918;9.438;2023-05-07T06:44:31;17.00;97.40
3705;DHT22;1868;48.918;9.438;2023-05-07T06:47:09;17.00;97.40
3705;DHT22;1868;48.918;9.438;2023-05-07T06:49:43;17.10;97.40
3705;DHT22;1868;48.918;9.438;2023-05-07T06:52:15;17.30;97.40
3705;DHT22;1868;48.918;9.438;2023-05-07T06:54:49;17.50;97.40
3705;DHT22;1868;48.918;9.438;2023-05-07T06:57:24;17.80;97.40
3705;DHT22;1868;48.918;9.438;2023-05-07T06:59:53;18.20;97.40
3705;DHT22;1868;48.918;9.438;2023-05-07T07:02:21;18.50;97.40
3705;DHT22;1868;48.918;9.438;2023-05-07T07:04:51;18.70;97.40
3705;DHT22;1868;48.918;9.438;2023-05-07T07:07:21;18.90;97.40
3705;DHT22;1868;48.918;9.438;2023-05-07T07:09:50;19.00;97.40
3705;DHT22;1868;48.918;9.438;2023-05-07T07:12:19;19.10;97.40
3705;DHT22;1868;48.918;9.438;2023-05-07T07:14:51;19.20;97.40
3705;DHT22;1868;48.918;9.438;2023-05-07T07:17:21;19.50;97.40
3705;DHT22;1868;48.918;9.438;2023-05-07T07:19:52;19.70;97.40
3705;DHT22;1868;48.918;9.438;2023-05-07T07:22:21;19.90;97.40
3705;DHT22;1868;48.918;9.438;2023-05-07T07:24:51;20.20;97.40
3705;DHT22;1868;48.918;9.438;2023-05-07T07:27:20;20.50;97.40
3705;DHT22;1868;48.918;9.438;2023-05-07T07:29:51;20.70;97.40
3705;DHT22;1868;48.918;9.438;2023-05-07T07:32:20;20.90;97.40
3705;DHT22;1868;48.918;9.438;2023-05-07T07:34:49;21.20;97.40
3705;DHT22;1868;48.918;9.438;2023-05-07T07:37:18;21.30;97.40
3705;DHT22;1868;48.918;9.438;2023-05-07T07:39:49;21.60;97.40
3705;DHT22;1868;48.918;9.438;2023-05-07T07:42:19;21.90;96.00
3705;DHT22;1868;48.918;9.438;2023-05-07T07:44:51;22.10;96.30
3705;DHT22;1868;48.918;9.438;2023-05-07T07:47:22;22.20;97.40
3705;DHT22;1868;48.918;9.438;2023-05-07T07:49:53;22.20;91.70
3705;DHT22;1868;48.918;9.438;2023-05-07T07:52:23;22.10;91.10
3705;DHT22;1868;48.918;9.438;2023-05-07T07:54:53;22.20;92.10
3705;DHT22;1868;48.918;9.438;2023-05-07T07:57:22;22.30;90.90
3705;DHT22;1868;48.918;9.438;2023-05-07T07:59:53;22.40;91.10
3705;DHT22;1868;48.918;9.438;2023-05-07T08:02:22;22.60;90.80
3705;DHT22;1868;48.918;9.438;2023-05-07T08:04:52;22.60;89.70
3705;DHT22;1868;48.918;9.438;2023-05-07T08:07:25;22.70;88.80
3705;DHT22;1868;48.918;9.438;2023-05-07T08:09:54;22.70;89.20
3705;DHT22;1868;48.918;9.438;2023-05-07T08:12:25;22.70;88.40
3705;DHT22;1868;48.918;9.438;2023-05-07T08:14:56;22.60;87.50
3705;DHT22;1868;48.918;9.438;2023-05-07T08:17:26;22.60;87.90
3705;DHT22;1868;48.918;9.438;2023-05-07T08:19:56;22.50;90.20
3705;DHT22;1868;48.918;9.438;2023-05-07T08:22:24;22.40;89.40
3705;DHT22;1868;48.918;9.438;2023-05-07T08:24:56;22.40;90.40
3705;DHT22;1868;48.918;9.438;2023-05-07T08:27:26;22.40;90.30
3705;DHT22;1868;48.918;9.438;2023-05-07T08:30:01;22.40;90.40
3705;DHT22;1868;48.918;9.438;2023-05-07T08:32:31;22.50;90.70
3705;DHT22;1868;48.918;9.438;2023-05-07T08:35:01;22.60;90.80
3705;DHT22;1868;48.918;9.438;2023-05-07T08:37:29;22.90;91.20
3705;DHT22;1868;48.918;9.438;2023-05-07T08:40:03;23.10;90.90
3705;DHT22;1868;48.918;9.438;2023-05-07T08:42:42;23.30;90.30
3705;DHT22;1868;48.918;9.438;2023-05-07T08:45:13;23.40;90.40
3705;DHT22;1868;48.918;9.438;2023-05-07T08:47:52;23.50;89.60
3705;DHT22;1868;48.918;9.438;2023-05-07T08:50:32;23.60;90.30
3705;DHT22;1868;48.918;9.438;2023-05-07T08:53:05;23.60;86.00
3705;DHT22;1868;48.918;9.438;2023-05-07T08:55:34;23.60;86.80
3705;DHT22;1868;48.918;9.438;2023-05-07T08:58:04;23.60;87.10
3705;DHT22;1868;48.918;9.438;2023-05-07T09:00:39;23.70;86.40
3705;DHT22;1868;48.918;9.438;2023-05-07T09:03:09;23.90;86.00
3705;DHT22;1868;48.918;9.438;2023-05-07T09:05:42;24.20;86.40
3705;DHT22;1868;48.918;9.438;2023-05-07T09:08:15;24.60;85.60
3705;DHT22;1868;48.918;9.438;2023-05-07T09:10:48;24.90;82.70
3705;DHT22;1868;48.918;9.438;2023-05-07T09:13:21;25.30;82.70
3705;DHT22;1868;48.918;9.438;2023-05-07T09:15:53;25.70;78.40
3705;DHT22;1868;48.918;9.438;2023-05-07T09:18:24;26.40;77.80
3705;DHT22;1868;48.918;9.438;2023-05-07T09:20:56;27.10;73.90
3705;DHT22;1868;48.918;9.438;2023-05-07T09:23:24;27.80;72.20
3705;DHT22;1868;48.918;9.438;2023-05-07T09:26:00;28.50;69.60
3705;DHT22;1868;48.918;9.438;2023-05-07T09:28:32;28.80;63.10
3705;DHT22;1868;48.918;9.438;2023-05-07T09:31:04;29.20;64.20
3705;DHT22;1868;48.918;9.438;2023-05-07T09:33:34;29.80;62.50
3705;DHT22;1868;48.918;9.438;2023-05-07T09:36:04;30.40;63.30
3705;DHT22;1868;48.918;9.438;2023-05-07T09:38:37;31.00;60.50
3705;DHT22;1868;48.918;9.438;2023-05-07T09:41:09;31.10;58.60
3705;DHT22;1868;48.918;9.438;2023-05-07T09:44:03;31.00;55.80
3705;DHT22;1868;48.918;9.438;2023-05-07T09:46:42;31.30;56.90
3705;DHT22;1868;48.918;9.438;2023-05-07T09:49:22;31.40;58.70
3705;DHT22;1868;48.918;9.438;2023-05-07T09:52:03;31.40;56.60
3705;DHT22;1868;48.918;9.438;2023-05-07T09:54:44;30.90;57.80
3705;DHT22;1868;48.918;9.438;2023-05-07T09:57:17;30.80;59.30
3705;DHT22;1868;48.918;9.438;2023-05-07T09:59:52;30.70;58.10
3705;DHT22;1868;48.918;9.438;2023-05-07T10:02:25;30.50;57.40
3705;DHT22;1868;48.918;9.438;2023-05-07T10:04:56;30.10;59.80
3705;DHT22;1868;48.918;9.438;2023-05-07T10:07:30;29.80;59.50
3705;DHT22;1868;48.918;9.438;2023-05-07T10:10:06;29.50;59.60
3705;DHT22;1868;48.918;9.438;2023-05-07T10:12:40;29.70;58.70
3705;DHT22;1868;48.918;9.438;2023-05-07T10:15:15;29.40;62.20
3705;DHT22;1868;48.918;9.438;2023-05-07T10:17:53;30.00;58.10
3705;DHT22;1868;48.918;9.438;2023-05-07T10:20:25;31.00;56.90
3705;DHT22;1868;48.918;9.438;2023-05-07T10:22:58;32.10;55.50
3705;DHT22;1868;48.918;9.438;2023-05-07T10:25:35;33.00;54.80
3705;DHT22;1868;48.918;9.438;2023-05-07T10:28:16;33.20;49.90
3705;DHT22;1868;48.918;9.438;2023-05-07T10:30:57;32.90;51.60
3705;DHT22;1868;48.918;9.438;2023-05-07T10:33:39;32.60;51.00
3705;DHT22;1868;48.918;9.438;2023-05-07T10:36:10;33.30;53.50
3705;DHT22;1868;48.918;9.438;2023-05-07T10:38:39;33.30;54.20
3705;DHT22;1868;48.918;9.438;2023-05-07T10:41:10;32.90;51.90
3705;DHT22;1868;48.918;9.438;2023-05-07T10:43:44;32.70;51.30
3705;DHT22;1868;48.918;9.438;2023-05-07T10:46:34;33.00;51.60
3705;DHT22;1868;48.918;9.438;2023-05-07T10:49:11;32.40;51.00
3705;DHT22;1868;48.918;9.438;2023-05-07T10:52:15;31.90;51.40
3705;DHT22;1868;48.918;9.438;2023-05-07T10:55:22;31.20;52.90
3705;DHT22;1868;48.918;9.438;2023-05-07T10:58:24;30.90;54.50
3705;DHT22;1868;48.918;9.438;2023-05-07T11:01:50;30.30;56.60
3705;DHT22;1868;48.918;9.438;2023-05-07T11:04:34;30.20;56.30
3705;DHT22;1868;48.918;9.438;2023-05-07T11:07:35;30.30;57.40
3705;DHT22;1868;48.918;9.438;2023-05-07T11:10:50;30.00;56.60
3705;DHT22;1868;48.918;9.438;2023-05-07T11:13:42;29.80;57.70
3705;DHT22;1868;48.918;9.438;2023-05-07T11:16:30;29.70;58.30
3705;DHT22;1868;48.918;9.438;2023-05-07T11:19:11;29.20;59.00
3705;DHT22;1868;48.918;9.438;2023-05-07T11:21:46;29.00;59.00
3705;DHT22;1868;48.918;9.438;2023-05-07T11:24:27;29.00;60.30
3705;DHT22;1868;48.918;9.438;2023-05-07T11:27:16;28.70;62.20
3705;DHT22;1868;48.918;9.438;2023-05-07T11:29:54;28.40;62.20
3705;DHT22;1868;48.918;9.438;2023-05-07T11:32:25;28.20;65.30
3705;DHT22;1868;48.918;9.438;2023-05-07T11:34:59;28.10;65.70
3705;DHT22;1868;48.918;9.438;2023-05-07T11:37:30;28.20;65.30
3705;DHT22;1868;48.918;9.438;2023-05-07T11:40:07;28.20;61.60
3705;DHT22;1868;48.918;9.438;2023-05-07T11:42:39;28.30;63.10
3705;DHT22;1868;48.918;9.438;2023-05-07T11:45:13;28.30;63.80
3705;DHT22;1868;48.918;9.438;2023-05-07T11:47:52;28.10;65.70
3705;DHT22;1868;48.918;9.438;2023-05-07T11:50:23;27.80;66.80
3705;DHT22;1868;48.918;9.438;2023-05-07T11:53:01;27.80;63.70
3705;DHT22;1868;48.918;9.438;2023-05-07T11:55:42;27.80;64.20
3705;DHT22;1868;48.918;9.438;2023-05-07T11:58:21;27.70;64.60
3705;DHT22;1868;48.918;9.438;2023-05-07T12:00:53;27.60;65.70
3705;DHT22;1868;48.918;9.438;2023-05-07T12:03:23;27.50;66.10
3705;DHT22;1868;48.918;9.438;2023-05-07T12:05:54;27.30;67.70
3705;DHT22;1868;48.918;9.438;2023-05-07T12:08:24;27.00;69.40
3705;DHT22;1868;48.918;9.438;2023-05-07T12:10:53;26.80;72.20
3705;DHT22;1868;48.918;9.438;2023-05-07T12:13:25;26.70;71.30
3705;DHT22;1868;48.918;9.438;2023-05-07T12:15:56;26.60;72.20
3705;DHT22;1868;48.918;9.438;2023-05-07T12:18:30;26.40;71.50
3705;DHT22;1868;48.918;9.438;2023-05-07T12:20:59;26.30;70.20
3705;DHT22;1868;48.918;9.438;2023-05-07T12:23:31;26.20;70.70
3705;DHT22;1868;48.918;9.438;2023-05-07T12:26:01;26.10;72.40
3705;DHT22;1868;48.918;9.438;2023-05-07T12:28:38;25.90;72.40
3705;DHT22;1868;48.918;9.438;2023-05-07T12:31:10;25.80;72.20
3705;DHT22;1868;48.918;9.438;2023-05-07T12:33:40;25.60;71.70
3705;DHT22;1868;48.918;9.438;2023-05-07T12:36:12;25.50;75.60
3705;DHT22;1868;48.918;9.438;2023-05-07T12:38:44;25.30;74.50
3705;DHT22;1868;48.918;9.438;2023-05-07T12:41:15;25.20;75.40
3705;DHT22;1868;48.918;9.438;2023-05-07T12:43:45;25.10;75.90
3705;DHT22;1868;48.918;9.438;2023-05-07T12:46:16;25.00;76.70
3705;DHT22;1868;48.918;9.438;2023-05-07T12:48:47;24.80;79.10
3705;DHT22;1868;48.918;9.438;2023-05-07T12:51:16;24.60;79.30
3705;DHT22;1868;48.918;9.438;2023-05-07T12:53:47;24.60;80.80
3705;DHT22;1868;48.918;9.438;2023-05-07T12:56:16;24.40;82.80
3705;DHT22;1868;48.918;9.438;2023-05-07T12:58:45;24.40;85.10
3705;DHT22;1868;48.918;9.438;2023-05-07T13:01:15;24.30;87.90
3705;DHT22;1868;48.918;9.438;2023-05-07T13:03:48;24.10;87.50
3705;DHT22;1868;48.918;9.438;2023-05-07T13:06:18;23.90;90.10
3705;DHT22;1868;48.918;9.438;2023-05-07T13:08:49;23.80;90.80
3705;DHT22;1868;48.918;9.438;2023-05-07T13:11:23;23.50;92.90
3705;DHT22;1868;48.918;9.438;2023-05-07T13:13:52;23.30;94.60
3705;DHT22;1868;48.918;9.438;2023-05-07T13:16:21;23.10;94.20
3705;DHT22;1868;48.918;9.438;2023-05-07T13:18:50;23.00;95.00
3705;DHT22;1868;48.918;9.438;2023-05-07T13:21:20;22.90;94.70
3705;DHT22;1868;48.918;9.438;2023-05-07T13:23:50;22.80;93.70
3705;DHT22;1868;48.918;9.438;2023-05-07T13:26:19;22.70;93.80
3705;DHT22;1868;48.918;9.438;2023-05-07T13:28:53;22.60;92.70
3705;DHT22;1868;48.918;9.438;2023-05-07T13:31:22;22.40;92.70
3705;DHT22;1868;48.918;9.438;2023-05-07T13:33:52;22.30;94.10
3705;DHT22;1868;48.918;9.438;2023-05-07T13:36:23;22.20;94.10
3705;DHT22;1868;48.918;9.438;2023-05-07T13:38:55;22.10;94.60
3705;DHT22;1868;48.918;9.438;2023-05-07T13:41:26;21.90;92.50
3705;DHT22;1868;48.918;9.438;2023-05-07T13:43:56;21.90;92.60
3705;DHT22;1868;48.918;9.438;2023-05-07T13:46:28;21.80;94.70
3705;DHT22;1868;48.918;9.438;2023-05-07T13:48:57;21.70;95.60
3705;DHT22;1868;48.918;9.438;2023-05-07T13:51:25;21.60;96.20
3705;DHT22;1868;48.918;9.438;2023-05-07T13:53:55;21.50;97.40
3705;DHT22;1868;48.918;9.438;2023-05-07T13:56:25;21.40;97.40
3705;DHT22;1868;48.918;9.438;2023-05-07T13:58:55;21.10;97.40
3705;DHT22;1868;48.918;9.438;2023-05-07T14:01:27;20.60;97.40
3705;DHT22;1868;48.918;9.438;2023-05-07T14:03:56;20.00;97.40
3705;DHT22;1868;48.918;9.438;2023-05-07T14:06:26;19.90;97.40
3705;DHT22;1868;48.918;9.438;2023-05-07T14:08:57;19.80;97.40
3705;DHT22;1868;48.918;9.438;2023-05-07T14:11:27;19.50;97.40
3705;DHT22;1868;48.918;9.438;2023-05-07T14:13:56;19.50;97.40
3705;DHT22;1868;48.918;9.438;2023-05-07T14:16:26;19.40;97.20
3705;DHT22;1868;48.918;9.438;2023-05-07T14:18:55;19.30;97.40
3705;DHT22;1868;48.918;9.438;2023-05-07T14:21:25;19.20;97.40
3705;DHT22;1868;48.918;9.438;2023-05-07T14:23:53;18.90;97.40
3705;DHT22;1868;48.918;9.438;2023-05-07T14:26:26;18.80;97.40
3705;DHT22;1868;48.918;9.438;2023-05-07T14:28:57;18.70;97.40
3705;DHT22;1868;48.918;9.438;2023-05-07T14:31:26;18.60;97.40
3705;DHT22;1868;48.918;9.438;2023-05-07T14:33:56;18.60;97.40
3705;DHT22;1868;48.918;9.438;2023-05-07T14:36:26;18.60;97.40
3705;DHT22;1868;48.918;9.438;2023-05-07T14:38:57;18.40;97.40
3705;DHT22;1868;48.918;9.438;2023-05-07T14:41:29;18.30;97.40
3705;DHT22;1868;48.918;9.438;2023-05-07T14:43:59;18.20;97.40
3705;DHT22;1868;48.918;9.438;2023-05-07T14:46:30;18.20;97.40
3705;DHT22;1868;48.918;9.438;2023-05-07T14:48:59;18.10;97.40
3705;DHT22;1868;48.918;9.438;2023-05-07T14:51:29;18.10;97.40
3705;DHT22;1868;48.918;9.438;2023-05-07T14:54:00;18.10;97.40
3705;DHT22;1868;48.918;9.438;2023-05-07T14:56:32;18.00;97.40
3705;DHT22;1868;48.918;9.438;2023-05-07T14:59:00;18.00;97.40
3705;DHT22;1868;48.918;9.438;2023-05-07T15:01:30;17.80;97.40
3705;DHT22;1868;48.918;9.438;2023-05-07T15:03:59;17.80;97.40
3705;DHT22;1868;48.918;9.438;2023-05-07T15:06:32;17.70;97.40
3705;DHT22;1868;48.918;9.438;2023-05-07T15:09:01;17.60;97.40
3705;DHT22;1868;48.918;9.438;2023-05-07T15:11:33;17.60;97.40
3705;DHT22;1868;48.918;9.438;2023-05-07T15:14:03;17.50;97.40
3705;DHT22;1868;48.918;9.438;2023-05-07T15:16:31;17.50;97.40
3705;DHT22;1868;48.918;9.438;2023-05-07T15:19:01;17.50;97.40
3705;DHT22;1868;48.918;9.438;2023-05-07T15:21:31;17.50;97.40
3705;DHT22;1868;48.918;9.438;2023-05-07T15:24:01;17.50;97.40
3705;DHT22;1868;48.918;9.438;2023-05-07T15:26:33;17.50;97.40
3705;DHT22;1868;48.918;9.438;2023-05-07T15:29:01;17.50;97.40
3705;DHT22;1868;48.918;9.438;2023-05-07T15:31:35;17.50;97.40
3705;DHT22;1868;48.918;9.438;2023-05-07T15:34:06;17.50;97.40
3705;DHT22;1868;48.918;9.438;2023-05-07T15:36:36;17.50;97.40
3705;DHT22;1868;48.918;9.438;2023-05-07T15:39:04;17.60;97.40
3705;DHT22;1868;48.918;9.438;2023-05-07T15:41:35;17.60;97.40
3705;DHT22;1868;48.918;9.438;2023-05-07T15:44:05;17.60;97.40
3705;DHT22;1868;48.918;9.438;2023-05-07T15:46:34;17.60;97.40
3705;DHT22;1868;48.918;9.438;2023-05-07T15:49:03;17.70;97.40
3705;DHT22;1868;48.918;9.438;2023-05-07T15:51:34;17.70;97.40
3705;DHT22;1868;48.918;9.438;2023-05-07T15:54:03;17.70;97.40
3705;DHT22;1868;48.918;9.438;2023-05-07T15:56:32;17.60;97.40
3705;DHT22;1868;48.918;9.438;2023-05-07T15:59:04;17.60;97.40
3705;DHT22;1868;48.918;9.438;2023-05-07T16:01:32;17.50;97.40
3705;DHT22;1868;48.918;9.438;2023-05-07T16:04:01;17.50;97.40
3705;DHT22;1868;48.918;9.438;2023-05-07T16:06:31;17.50;97.40
3705;DHT22;1868;48.918;9.438;2023-05-07T16:08:59;17.40;97.40
3705;DHT22;1868;48.918;9.438;2023-05-07T16:11:29;17.40;97.40
3705;DHT22;1868;48.918;9.438;2023-05-07T16:13:59;17.50;97.40
3705;DHT22;1868;48.918;9.438;2023-05-07T16:16:32;17.50;97.40
3705;DHT22;1868;48.918;9.438;2023-05-07T16:19:02;17.50;97.40
3705;DHT22;1868;48.918;9.438;2023-05-07T16:21:31;17.50;97.40
3705;DHT22;1868;48.918;9.438;2023-05-07T16:24:01;17.50;97.40
3705;DHT22;1868;48.918;9.438;2023-05-07T16:26:32;17.50;97.40
3705;DHT22;1868;48.918;9.438;2023-05-07T16:29:04;17.50;97.40
3705;DHT22;1868;48.918;9.438;2023-05-07T16:31:34;17.50;97.40
3705;DHT22;1868;48.918;9.438;2023-05-07T16:34:03;17.50;97.40